sensor_id;sensor_type;location;lat;lon;timestamp;P1;durP1;ratioP1;P2;durP2;ratioP2
65162;SDS011;51751;55.714;37.436;2022-08-21T00:01:10;44.42;;;25.20;;
65162;SDS011;51751;55.714;37.436;2022-08-21T00:03:36;40.25;;;24.13;;
65162;SDS011;51751;55.714;37.436;2022-08-21T00:06:03;44.70;;;25.52;;
65162;SDS011;51751;55.714;37.436;2022-08-21T00:08:28;39.95;;;24.65;;
65162;SDS011;51751;55.714;37.436;2022-08-21T00:10:59;35.35;;;23.88;;
65162;SDS011;51751;55.714;37.436;2022-08-21T00:13:34;41.45;;;25.95;;
65162;SDS011;51751;55.714;37.436;2022-08-21T00:16:01;40.95;;;25.63;;
65162;SDS011;51751;55.714;37.436;2022-08-21T00:18:28;40.78;;;26.02;;
65162;SDS011;51751;55.714;37.436;2022-08-21T00:20:54;44.33;;;26.40;;
65162;SDS011;51751;55.714;37.436;2022-08-21T00:23:20;39.42;;;26.35;;
65162;SDS011;51751;55.714;37.436;2022-08-21T00:25:46;36.47;;;25.45;;
65162;SDS011;51751;55.714;37.436;2022-08-21T00:28:12;44.60;;;26.27;;
65162;SDS011;51751;55.714;37.436;2022-08-21T00:30:39;44.58;;;26.60;;
65162;SDS011;51751;55.714;37.436;2022-08-21T00:33:06;44.08;;;27.08;;
65162;SDS011;51751;55.714;37.436;2022-08-21T00:35:35;38.97;;;25.33;;
65162;SDS011;51751;55.714;37.436;2022-08-21T00:38:03;45.75;;;27.10;;
65162;SDS011;51751;55.714;37.436;2022-08-21T00:40:38;44.47;;;26.58;;
65162;SDS011;51751;55.714;37.436;2022-08-21T00:43:14;46.50;;;27.95;;
65162;SDS011;51751;55.714;37.436;2022-08-21T00:45:51;41.65;;;26.00;;
65162;SDS011;51751;55.714;37.436;2022-08-21T00:48:18;42.60;;;26.92;;
65162;SDS011;51751;55.714;37.436;2022-08-21T00:50:54;46.00;;;27.58;;
65162;SDS011;51751;55.714;37.436;2022-08-21T00:53:42;45.00;;;27.17;;
65162;SDS011;51751;55.714;37.436;2022-08-21T00:56:09;43.90;;;27.38;;
65162;SDS011;51751;55.714;37.436;2022-08-21T00:58:36;48.03;;;28.88;;
65162;SDS011;51751;55.714;37.436;2022-08-21T01:03:48;45.42;;;27.48;;
65162;SDS011;51751;55.714;37.436;2022-08-21T01:06:17;44.63;;;28.52;;
65162;SDS011;51751;55.714;37.436;2022-08-21T01:08:43;46.67;;;27.73;;
65162;SDS011;51751;55.714;37.436;2022-08-21T01:11:13;46.72;;;27.20;;
65162;SDS011;51751;55.714;37.436;2022-08-21T01:13:40;50.03;;;27.25;;
65162;SDS011;51751;55.714;37.436;2022-08-21T01:16:11;43.58;;;27.67;;
65162;SDS011;51751;55.714;37.436;2022-08-21T01:18:39;48.00;;;27.58;;
65162;SDS011;51751;55.714;37.436;2022-08-21T01:21:09;43.95;;;28.08;;
65162;SDS011;51751;55.714;37.436;2022-08-21T01:23:48;42.35;;;27.70;;
65162;SDS011;51751;55.714;37.436;2022-08-21T01:26:21;44.65;;;27.88;;
65162;SDS011;51751;55.714;37.436;2022-08-21T01:31:55;43.63;;;28.48;;
65162;SDS011;51751;55.714;37.436;2022-08-21T01:34:21;44.80;;;28.80;;
65162;SDS011;51751;55.714;37.436;2022-08-21T01:36:48;47.67;;;28.55;;
65162;SDS011;51751;55.714;37.436;2022-08-21T01:39:14;46.45;;;28.20;;
65162;SDS011;51751;55.714;37.436;2022-08-21T01:41:41;45.95;;;27.27;;
65162;SDS011;51751;55.714;37.436;2022-08-21T01:44:07;44.53;;;27.92;;
65162;SDS011;51751;55.714;37.436;2022-08-21T01:46:35;43.72;;;27.73;;
65162;SDS011;51751;55.714;37.436;2022-08-21T01:49:02;42.80;;;28.05;;
65162;SDS011;51751;55.714;37.436;2022-08-21T01:51:28;42.45;;;27.95;;
65162;SDS011;51751;55.714;37.436;2022-08-21T01:53:54;43.05;;;26.30;;
65162;SDS011;51751;55.714;37.436;2022-08-21T01:56:26;46.50;;;26.52;;
65162;SDS011;51751;55.714;37.436;2022-08-21T01:58:53;45.67;;;26.20;;
65162;SDS011;51751;55.714;37.436;2022-08-21T02:01:19;42.65;;;26.73;;
65162;SDS011;51751;55.714;37.436;2022-08-21T02:03:45;44.03;;;25.92;;
65162;SDS011;51751;55.714;37.436;2022-08-21T02:06:12;45.60;;;25.83;;
65162;SDS011;51751;55.714;37.436;2022-08-21T02:08:40;43.88;;;25.40;;
65162;SDS011;51751;55.714;37.436;2022-08-21T02:11:06;42.75;;;25.40;;
65162;SDS011;51751;55.714;37.436;2022-08-21T02:13:32;38.80;;;26.38;;
65162;SDS011;51751;55.714;37.436;2022-08-21T02:15:58;42.00;;;25.27;;
65162;SDS011;51751;55.714;37.436;2022-08-21T02:18:26;38.20;;;25.13;;
65162;SDS011;51751;55.714;37.436;2022-08-21T02:20:53;40.22;;;25.17;;
65162;SDS011;51751;55.714;37.436;2022-08-21T02:23:19;37.47;;;23.38;;
65162;SDS011;51751;55.714;37.436;2022-08-21T02:25:45;40.30;;;23.23;;
65162;SDS011;51751;55.714;37.436;2022-08-21T02:28:12;42.80;;;24.10;;
65162;SDS011;51751;55.714;37.436;2022-08-21T02:30:44;40.33;;;23.67;;
65162;SDS011;51751;55.714;37.436;2022-08-21T02:33:17;41.10;;;23.98;;
65162;SDS011;51751;55.714;37.436;2022-08-21T02:35:44;34.95;;;22.02;;
65162;SDS011;51751;55.714;37.436;2022-08-21T02:38:13;38.80;;;23.88;;
65162;SDS011;51751;55.714;37.436;2022-08-21T02:40:44;36.88;;;22.60;;
65162;SDS011;51751;55.714;37.436;2022-08-21T02:43:11;33.67;;;22.25;;
65162;SDS011;51751;55.714;37.436;2022-08-21T02:45:40;37.03;;;23.58;;
65162;SDS011;51751;55.714;37.436;2022-08-21T02:48:09;35.10;;;23.02;;
65162;SDS011;51751;55.714;37.436;2022-08-21T02:50:39;32.95;;;21.83;;
65162;SDS011;51751;55.714;37.436;2022-08-21T02:53:26;41.22;;;21.77;;
65162;SDS011;51751;55.714;37.436;2022-08-21T02:55:56;36.00;;;21.63;;
65162;SDS011;51751;55.714;37.436;2022-08-21T02:58:25;35.28;;;22.67;;
65162;SDS011;51751;55.714;37.436;2022-08-21T03:00:52;39.75;;;21.70;;
65162;SDS011;51751;55.714;37.436;2022-08-21T03:03:19;39.08;;;22.27;;
65162;SDS011;51751;55.714;37.436;2022-08-21T03:05:46;39.05;;;22.48;;
65162;SDS011;51751;55.714;37.436;2022-08-21T03:08:13;32.85;;;21.42;;
65162;SDS011;51751;55.714;37.436;2022-08-21T03:10:41;35.08;;;21.92;;
65162;SDS011;51751;55.714;37.436;2022-08-21T03:13:09;37.97;;;21.60;;
65162;SDS011;51751;55.714;37.436;2022-08-21T03:15:39;40.97;;;22.80;;
65162;SDS011;51751;55.714;37.436;2022-08-21T03:18:06;36.45;;;21.77;;
65162;SDS011;51751;55.714;37.436;2022-08-21T03:20:34;34.08;;;20.38;;
65162;SDS011;51751;55.714;37.436;2022-08-21T03:23:01;31.80;;;20.90;;
65162;SDS011;51751;55.714;37.436;2022-08-21T03:25:28;36.92;;;21.75;;
65162;SDS011;51751;55.714;37.436;2022-08-21T03:28:01;36.88;;;20.83;;
65162;SDS011;51751;55.714;37.436;2022-08-21T03:30:28;36.13;;;20.35;;
65162;SDS011;51751;55.714;37.436;2022-08-21T03:32:56;34.75;;;21.10;;
65162;SDS011;51751;55.714;37.436;2022-08-21T03:35:23;33.35;;;19.08;;
65162;SDS011;51751;55.714;37.436;2022-08-21T03:37:49;33.42;;;21.05;;
65162;SDS011;51751;55.714;37.436;2022-08-21T03:40:16;33.58;;;20.05;;
65162;SDS011;51751;55.714;37.436;2022-08-21T03:42:43;37.17;;;20.80;;
65162;SDS011;51751;55.714;37.436;2022-08-21T03:45:14;39.25;;;20.58;;
65162;SDS011;51751;55.714;37.436;2022-08-21T03:50:38;33.15;;;20.42;;
65162;SDS011;51751;55.714;37.436;2022-08-21T03:53:05;33.35;;;20.27;;
65162;SDS011;51751;55.714;37.436;2022-08-21T03:55:32;29.38;;;19.50;;
65162;SDS011;51751;55.714;37.436;2022-08-21T03:57:58;35.50;;;18.83;;
65162;SDS011;51751;55.714;37.436;2022-08-21T04:00:24;31.90;;;18.63;;
65162;SDS011;51751;55.714;37.436;2022-08-21T04:02:50;28.27;;;19.08;;
65162;SDS011;51751;55.714;37.436;2022-08-21T04:05:17;29.02;;;19.13;;
65162;SDS011;51751;55.714;37.436;2022-08-21T04:07:59;28.83;;;18.35;;
65162;SDS011;51751;55.714;37.436;2022-08-21T04:10:27;31.50;;;18.98;;
65162;SDS011;51751;55.714;37.436;2022-08-21T04:12:54;34.97;;;18.88;;
65162;SDS011;51751;55.714;37.436;2022-08-21T04:15:33;30.48;;;18.63;;
65162;SDS011;51751;55.714;37.436;2022-08-21T04:18:05;36.10;;;19.08;;
65162;SDS011;51751;55.714;37.436;2022-08-21T04:20:32;33.28;;;19.50;;
65162;SDS011;51751;55.714;37.436;2022-08-21T04:23:02;33.53;;;19.00;;
65162;SDS011;51751;55.714;37.436;2022-08-21T04:25:28;31.73;;;19.85;;
65162;SDS011;51751;55.714;37.436;2022-08-21T04:27:55;36.33;;;19.08;;
65162;SDS011;51751;55.714;37.436;2022-08-21T04:30:21;27.77;;;18.60;;
65162;SDS011;51751;55.714;37.436;2022-08-21T04:32:48;32.13;;;18.25;;
65162;SDS011;51751;55.714;37.436;2022-08-21T04:35:20;30.02;;;18.75;;
65162;SDS011;51751;55.714;37.436;2022-08-21T04:37:47;30.35;;;19.30;;
65162;SDS011;51751;55.714;37.436;2022-08-21T04:40:14;29.30;;;18.10;;
65162;SDS011;51751;55.714;37.436;2022-08-21T04:42:47;25.80;;;18.98;;
65162;SDS011;51751;55.714;37.436;2022-08-21T04:45:19;27.42;;;18.83;;
65162;SDS011;51751;55.714;37.436;2022-08-21T04:48:11;32.95;;;18.90;;
65162;SDS011;51751;55.714;37.436;2022-08-21T04:50:45;35.75;;;20.42;;
65162;SDS011;51751;55.714;37.436;2022-08-21T04:53:24;33.67;;;19.92;;
65162;SDS011;51751;55.714;37.436;2022-08-21T04:56:07;39.13;;;22.25;;
65162;SDS011;51751;55.714;37.436;2022-08-21T04:58:55;34.72;;;21.25;;
65162;SDS011;51751;55.714;37.436;2022-08-21T05:01:23;32.17;;;21.55;;
65162;SDS011;51751;55.714;37.436;2022-08-21T05:03:52;35.25;;;20.77;;
65162;SDS011;51751;55.714;37.436;2022-08-21T05:06:33;31.73;;;22.30;;
65162;SDS011;51751;55.714;37.436;2022-08-21T05:09:01;34.90;;;21.48;;
65162;SDS011;51751;55.714;37.436;2022-08-21T05:11:28;36.50;;;23.23;;
65162;SDS011;51751;55.714;37.436;2022-08-21T05:13:55;42.00;;;23.05;;
65162;SDS011;51751;55.714;37.436;2022-08-21T05:16:21;37.55;;;23.15;;
65162;SDS011;51751;55.714;37.436;2022-08-21T05:18:47;37.63;;;23.48;;
65162;SDS011;51751;55.714;37.436;2022-08-21T05:21:14;36.58;;;24.15;;
65162;SDS011;51751;55.714;37.436;2022-08-21T05:23:40;33.97;;;23.15;;
65162;SDS011;51751;55.714;37.436;2022-08-21T05:26:06;39.17;;;24.35;;
65162;SDS011;51751;55.714;37.436;2022-08-21T05:28:35;35.60;;;23.42;;
65162;SDS011;51751;55.714;37.436;2022-08-21T05:31:01;37.03;;;24.25;;
65162;SDS011;51751;55.714;37.436;2022-08-21T05:33:27;40.65;;;24.83;;
65162;SDS011;51751;55.714;37.436;2022-08-21T05:35:54;40.55;;;25.85;;
65162;SDS011;51751;55.714;37.436;2022-08-21T05:38:21;45.92;;;26.08;;
65162;SDS011;51751;55.714;37.436;2022-08-21T05:40:48;45.42;;;25.67;;
65162;SDS011;51751;55.714;37.436;2022-08-21T05:43:14;41.15;;;26.02;;
65162;SDS011;51751;55.714;37.436;2022-08-21T05:45:41;41.50;;;26.77;;
65162;SDS011;51751;55.714;37.436;2022-08-21T05:48:12;39.65;;;25.83;;
65162;SDS011;51751;55.714;37.436;2022-08-21T05:50:40;43.72;;;26.17;;
65162;SDS011;51751;55.714;37.436;2022-08-21T05:56:08;46.20;;;25.73;;
65162;SDS011;51751;55.714;37.436;2022-08-21T05:58:35;44.75;;;26.65;;
65162;SDS011;51751;55.714;37.436;2022-08-21T06:01:01;39.45;;;25.15;;
65162;SDS011;51751;55.714;37.436;2022-08-21T06:03:33;42.97;;;24.73;;
65162;SDS011;51751;55.714;37.436;2022-08-21T06:06:00;37.38;;;23.98;;
65162;SDS011;51751;55.714;37.436;2022-08-21T06:08:27;46.08;;;24.85;;
65162;SDS011;51751;55.714;37.436;2022-08-21T06:10:57;44.15;;;23.50;;
65162;SDS011;51751;55.714;37.436;2022-08-21T06:13:24;47.30;;;25.25;;
65162;SDS011;51751;55.714;37.436;2022-08-21T06:16:00;37.25;;;22.77;;
65162;SDS011;51751;55.714;37.436;2022-08-21T06:18:35;47.65;;;25.05;;
65162;SDS011;51751;55.714;37.436;2022-08-21T06:21:01;37.97;;;24.88;;
65162;SDS011;51751;55.714;37.436;2022-08-21T06:23:27;44.80;;;25.27;;
65162;SDS011;51751;55.714;37.436;2022-08-21T06:25:53;35.88;;;22.95;;
65162;SDS011;51751;55.714;37.436;2022-08-21T06:28:19;40.30;;;22.30;;
65162;SDS011;51751;55.714;37.436;2022-08-21T06:30:45;35.90;;;22.25;;
65162;SDS011;51751;55.714;37.436;2022-08-21T06:33:11;35.78;;;20.90;;
65162;SDS011;51751;55.714;37.436;2022-08-21T06:35:37;39.72;;;22.40;;
65162;SDS011;51751;55.714;37.436;2022-08-21T06:38:04;47.25;;;22.05;;
65162;SDS011;51751;55.714;37.436;2022-08-21T06:40:30;36.53;;;20.95;;
65162;SDS011;51751;55.714;37.436;2022-08-21T06:43:05;33.15;;;21.15;;
65162;SDS011;51751;55.714;37.436;2022-08-21T06:45:32;36.92;;;22.98;;
65162;SDS011;51751;55.714;37.436;2022-08-21T06:47:59;36.13;;;21.67;;
65162;SDS011;51751;55.714;37.436;2022-08-21T06:50:25;37.05;;;21.52;;
65162;SDS011;51751;55.714;37.436;2022-08-21T06:52:57;33.33;;;21.08;;
65162;SDS011;51751;55.714;37.436;2022-08-21T06:55:25;31.60;;;22.05;;
65162;SDS011;51751;55.714;37.436;2022-08-21T06:57:51;35.03;;;20.27;;
65162;SDS011;51751;55.714;37.436;2022-08-21T07:00:20;37.72;;;20.90;;
65162;SDS011;51751;55.714;37.436;2022-08-21T07:02:50;33.25;;;21.25;;
65162;SDS011;51751;55.714;37.436;2022-08-21T07:05:16;43.17;;;21.13;;
65162;SDS011;51751;55.714;37.436;2022-08-21T07:07:43;31.98;;;20.38;;
65162;SDS011;51751;55.714;37.436;2022-08-21T07:10:27;41.13;;;22.23;;
65162;SDS011;51751;55.714;37.436;2022-08-21T07:12:54;33.42;;;21.90;;
65162;SDS011;51751;55.714;37.436;2022-08-21T07:15:20;31.27;;;20.50;;
65162;SDS011;51751;55.714;37.436;2022-08-21T07:17:46;30.20;;;19.88;;
65162;SDS011;51751;55.714;37.436;2022-08-21T07:20:12;35.92;;;20.08;;
65162;SDS011;51751;55.714;37.436;2022-08-21T07:22:41;30.17;;;20.02;;
65162;SDS011;51751;55.714;37.436;2022-08-21T07:25:28;35.42;;;21.52;;
65162;SDS011;51751;55.714;37.436;2022-08-21T07:27:58;40.22;;;21.98;;
65162;SDS011;51751;55.714;37.436;2022-08-21T07:30:24;32.85;;;20.17;;
65162;SDS011;51751;55.714;37.436;2022-08-21T07:32:51;27.48;;;18.25;;
65162;SDS011;51751;55.714;37.436;2022-08-21T07:35:18;27.95;;;18.58;;
65162;SDS011;51751;55.714;37.436;2022-08-21T07:37:44;35.90;;;19.25;;
65162;SDS011;51751;55.714;37.436;2022-08-21T07:40:14;38.53;;;20.65;;
65162;SDS011;51751;55.714;37.436;2022-08-21T07:42:41;33.88;;;20.65;;
65162;SDS011;51751;55.714;37.436;2022-08-21T07:45:15;31.98;;;19.38;;
65162;SDS011;51751;55.714;37.436;2022-08-21T07:47:47;36.13;;;18.90;;
65162;SDS011;51751;55.714;37.436;2022-08-21T07:50:14;31.15;;;18.55;;
65162;SDS011;51751;55.714;37.436;2022-08-21T07:52:40;27.48;;;19.33;;
65162;SDS011;51751;55.714;37.436;2022-08-21T07:55:08;32.97;;;18.65;;
65162;SDS011;51751;55.714;37.436;2022-08-21T07:57:39;40.40;;;19.23;;
65162;SDS011;51751;55.714;37.436;2022-08-21T08:00:06;33.92;;;19.45;;
65162;SDS011;51751;55.714;37.436;2022-08-21T08:02:40;36.15;;;19.85;;
65162;SDS011;51751;55.714;37.436;2022-08-21T08:05:12;38.00;;;18.65;;
65162;SDS011;51751;55.714;37.436;2022-08-21T08:07:38;29.35;;;18.92;;
65162;SDS011;51751;55.714;37.436;2022-08-21T08:10:07;31.67;;;19.10;;
65162;SDS011;51751;55.714;37.436;2022-08-21T08:12:43;31.30;;;19.60;;
65162;SDS011;51751;55.714;37.436;2022-08-21T08:15:14;36.33;;;19.10;;
65162;SDS011;51751;55.714;37.436;2022-08-21T08:17:42;29.90;;;17.40;;
65162;SDS011;51751;55.714;37.436;2022-08-21T08:20:08;33.47;;;18.83;;
65162;SDS011;51751;55.714;37.436;2022-08-21T08:22:36;35.15;;;19.08;;
65162;SDS011;51751;55.714;37.436;2022-08-21T08:25:04;29.63;;;17.95;;
65162;SDS011;51751;55.714;37.436;2022-08-21T08:27:31;29.63;;;17.92;;
65162;SDS011;51751;55.714;37.436;2022-08-21T08:29:57;33.78;;;18.63;;
65162;SDS011;51751;55.714;37.436;2022-08-21T08:32:24;33.97;;;17.50;;
65162;SDS011;51751;55.714;37.436;2022-08-21T08:34:50;31.10;;;17.20;;
65162;SDS011;51751;55.714;37.436;2022-08-21T08:37:18;33.60;;;18.08;;
65162;SDS011;51751;55.714;37.436;2022-08-21T08:39:45;34.58;;;19.05;;
65162;SDS011;51751;55.714;37.436;2022-08-21T08:42:11;37.97;;;19.63;;
65162;SDS011;51751;55.714;37.436;2022-08-21T08:44:42;38.33;;;20.17;;
65162;SDS011;51751;55.714;37.436;2022-08-21T08:47:13;39.95;;;21.10;;
65162;SDS011;51751;55.714;37.436;2022-08-21T08:52:31;30.23;;;20.08;;
65162;SDS011;51751;55.714;37.436;2022-08-21T08:57:49;40.65;;;20.67;;
65162;SDS011;51751;55.714;37.436;2022-08-21T09:00:16;27.73;;;15.80;;
65162;SDS011;51751;55.714;37.436;2022-08-21T09:02:45;26.35;;;15.95;;
65162;SDS011;51751;55.714;37.436;2022-08-21T09:11:01;31.65;;;16.58;;
65162;SDS011;51751;55.714;37.436;2022-08-21T09:13:39;27.13;;;15.80;;
65162;SDS011;51751;55.714;37.436;2022-08-21T09:16:40;30.52;;;15.75;;
65162;SDS011;51751;55.714;37.436;2022-08-21T09:19:23;28.00;;;14.68;;
65162;SDS011;51751;55.714;37.436;2022-08-21T09:24:58;32.92;;;15.45;;
65162;SDS011;51751;55.714;37.436;2022-08-21T09:27:43;26.90;;;14.43;;
65162;SDS011;51751;55.714;37.436;2022-08-21T09:30:10;30.40;;;14.13;;
65162;SDS011;51751;55.714;37.436;2022-08-21T09:32:39;30.05;;;13.48;;
65162;SDS011;51751;55.714;37.436;2022-08-21T09:37:49;28.00;;;13.35;;
65162;SDS011;51751;55.714;37.436;2022-08-21T09:40:20;23.27;;;13.15;;
65162;SDS011;51751;55.714;37.436;2022-08-21T09:42:59;28.67;;;13.00;;
65162;SDS011;51751;55.714;37.436;2022-08-21T09:45:30;30.40;;;13.80;;
65162;SDS011;51751;55.714;37.436;2022-08-21T09:48:12;20.98;;;12.95;;
65162;SDS011;51751;55.714;37.436;2022-08-21T09:50:49;27.02;;;13.50;;
65162;SDS011;51751;55.714;37.436;2022-08-21T09:55:58;24.02;;;12.00;;
65162;SDS011;51751;55.714;37.436;2022-08-21T09:58:46;20.67;;;10.45;;
65162;SDS011;51751;55.714;37.436;2022-08-21T10:01:15;19.33;;;9.88;;
65162;SDS011;51751;55.714;37.436;2022-08-21T10:03:46;20.23;;;8.80;;
65162;SDS011;51751;55.714;37.436;2022-08-21T10:06:23;19.40;;;8.40;;
65162;SDS011;51751;55.714;37.436;2022-08-21T10:08:50;24.45;;;8.45;;
65162;SDS011;51751;55.714;37.436;2022-08-21T10:11:17;22.75;;;8.25;;
65162;SDS011;51751;55.714;37.436;2022-08-21T10:19:12;22.58;;;8.20;;
65162;SDS011;51751;55.714;37.436;2022-08-21T10:24:23;14.43;;;6.43;;
65162;SDS011;51751;55.714;37.436;2022-08-21T10:38:01;14.68;;;6.97;;
65162;SDS011;51751;55.714;37.436;2022-08-21T10:46:09;12.32;;;6.25;;
65162;SDS011;51751;55.714;37.436;2022-08-21T10:48:54;21.90;;;7.22;;
65162;SDS011;51751;55.714;37.436;2022-08-21T10:56:43;14.65;;;7.15;;
65162;SDS011;51751;55.714;37.436;2022-08-21T11:02:17;16.35;;;6.95;;
65162;SDS011;51751;55.714;37.436;2022-08-21T11:07:48;20.90;;;6.50;;
65162;SDS011;51751;55.714;37.436;2022-08-21T11:10:27;15.85;;;4.93;;
65162;SDS011;51751;55.714;37.436;2022-08-21T11:13:00;17.17;;;4.65;;
65162;SDS011;51751;55.714;37.436;2022-08-21T11:29:58;16.58;;;3.30;;
65162;SDS011;51751;55.714;37.436;2022-08-21T11:46:52;19.55;;;3.90;;
65162;SDS011;51751;55.714;37.436;2022-08-21T11:57:27;14.65;;;5.07;;
65162;SDS011;51751;55.714;37.436;2022-08-21T12:05:42;13.70;;;5.78;;
65162;SDS011;51751;55.714;37.436;2022-08-21T12:08:31;22.17;;;6.85;;
65162;SDS011;51751;55.714;37.436;2022-08-21T12:11:08;22.73;;;6.90;;
65162;SDS011;51751;55.714;37.436;2022-08-21T12:13:57;15.80;;;9.07;;
65162;SDS011;51751;55.714;37.436;2022-08-21T12:16:45;17.65;;;9.85;;
65162;SDS011;51751;55.714;37.436;2022-08-21T12:19:35;20.85;;;10.57;;
65162;SDS011;51751;55.714;37.436;2022-08-21T12:27:12;24.25;;;10.13;;
65162;SDS011;51751;55.714;37.436;2022-08-21T12:29:47;24.58;;;10.40;;
65162;SDS011;51751;55.714;37.436;2022-08-21T12:42:51;16.10;;;5.03;;
65162;SDS011;51751;55.714;37.436;2022-08-21T12:45:23;18.13;;;3.92;;
65162;SDS011;51751;55.714;37.436;2022-08-21T12:48:10;12.68;;;4.20;;
65162;SDS011;51751;55.714;37.436;2022-08-21T12:50:42;14.80;;;3.75;;
65162;SDS011;51751;55.714;37.436;2022-08-21T12:53:13;15.60;;;2.65;;
65162;SDS011;51751;55.714;37.436;2022-08-21T12:55:48;17.40;;;2.47;;
65162;SDS011;51751;55.714;37.436;2022-08-21T12:58:18;22.20;;;2.83;;
65162;SDS011;51751;55.714;37.436;2022-08-21T13:00:53;17.10;;;2.47;;
65162;SDS011;51751;55.714;37.436;2022-08-21T13:03:22;9.60;;;2.63;;
65162;SDS011;51751;55.714;37.436;2022-08-21T13:05:49;20.13;;;2.80;;
65162;SDS011;51751;55.714;37.436;2022-08-21T13:08:18;13.05;;;2.63;;
65162;SDS011;51751;55.714;37.436;2022-08-21T13:11:01;13.80;;;2.60;;
65162;SDS011;51751;55.714;37.436;2022-08-21T13:13:29;11.73;;;2.80;;
65162;SDS011;51751;55.714;37.436;2022-08-21T13:15:56;19.42;;;3.25;;
65162;SDS011;51751;55.714;37.436;2022-08-21T13:18:33;16.95;;;3.47;;
65162;SDS011;51751;55.714;37.436;2022-08-21T13:21:17;12.18;;;2.90;;
65162;SDS011;51751;55.714;37.436;2022-08-21T13:23:43;19.08;;;3.67;;
65162;SDS011;51751;55.714;37.436;2022-08-21T13:26:13;12.98;;;3.25;;
65162;SDS011;51751;55.714;37.436;2022-08-21T13:29:06;17.45;;;3.72;;
65162;SDS011;51751;55.714;37.436;2022-08-21T13:31:32;17.40;;;3.83;;
65162;SDS011;51751;55.714;37.436;2022-08-21T13:33:59;10.55;;;3.80;;
65162;SDS011;51751;55.714;37.436;2022-08-21T13:36:29;11.82;;;3.65;;
65162;SDS011;51751;55.714;37.436;2022-08-21T13:38:58;13.43;;;3.55;;
65162;SDS011;51751;55.714;37.436;2022-08-21T13:41:29;25.45;;;3.88;;
65162;SDS011;51751;55.714;37.436;2022-08-21T13:43:58;14.30;;;4.00;;
65162;SDS011;51751;55.714;37.436;2022-08-21T13:46:30;18.10;;;3.78;;
65162;SDS011;51751;55.714;37.436;2022-08-21T13:48:59;9.48;;;3.60;;
65162;SDS011;51751;55.714;37.436;2022-08-21T13:51:32;15.32;;;4.15;;
65162;SDS011;51751;55.714;37.436;2022-08-21T13:53:59;12.48;;;3.80;;
65162;SDS011;51751;55.714;37.436;2022-08-21T13:56:29;10.35;;;3.22;;
65162;SDS011;51751;55.714;37.436;2022-08-21T14:02:12;8.70;;;3.40;;
65162;SDS011;51751;55.714;37.436;2022-08-21T14:04:52;12.13;;;3.30;;
65162;SDS011;51751;55.714;37.436;2022-08-21T14:10:20;15.32;;;3.30;;
65162;SDS011;51751;55.714;37.436;2022-08-21T14:12:58;27.58;;;3.83;;
65162;SDS011;51751;55.714;37.436;2022-08-21T14:15:28;16.58;;;3.22;;
65162;SDS011;51751;55.714;37.436;2022-08-21T14:18:07;15.45;;;3.85;;
65162;SDS011;51751;55.714;37.436;2022-08-21T14:20:51;16.45;;;3.25;;
65162;SDS011;51751;55.714;37.436;2022-08-21T14:23:26;14.95;;;3.35;;
65162;SDS011;51751;55.714;37.436;2022-08-21T14:25:53;14.15;;;3.80;;
65162;SDS011;51751;55.714;37.436;2022-08-21T14:28:31;22.70;;;3.85;;
65162;SDS011;51751;55.714;37.436;2022-08-21T14:31:10;23.67;;;4.40;;
65162;SDS011;51751;55.714;37.436;2022-08-21T14:33:39;16.35;;;4.80;;
65162;SDS011;51751;55.714;37.436;2022-08-21T14:36:06;16.70;;;4.65;;
65162;SDS011;51751;55.714;37.436;2022-08-21T14:38:34;16.08;;;5.70;;
65162;SDS011;51751;55.714;37.436;2022-08-21T14:41:12;22.30;;;5.85;;
65162;SDS011;51751;55.714;37.436;2022-08-21T14:43:44;19.60;;;5.50;;
65162;SDS011;51751;55.714;37.436;2022-08-21T14:46:16;14.23;;;5.18;;
65162;SDS011;51751;55.714;37.436;2022-08-21T14:48:46;19.75;;;5.55;;
65162;SDS011;51751;55.714;37.436;2022-08-21T14:51:12;13.50;;;5.43;;
65162;SDS011;51751;55.714;37.436;2022-08-21T14:53:45;15.68;;;5.45;;
65162;SDS011;51751;55.714;37.436;2022-08-21T14:56:11;14.93;;;5.07;;
65162;SDS011;51751;55.714;37.436;2022-08-21T14:58:42;9.82;;;4.40;;
65162;SDS011;51751;55.714;37.436;2022-08-21T15:01:12;22.23;;;4.63;;
65162;SDS011;51751;55.714;37.436;2022-08-21T15:03:39;9.73;;;4.15;;
65162;SDS011;51751;55.714;37.436;2022-08-21T15:06:08;14.32;;;4.18;;
65162;SDS011;51751;55.714;37.436;2022-08-21T15:08:34;11.45;;;4.28;;
65162;SDS011;51751;55.714;37.436;2022-08-21T15:11:01;9.50;;;3.83;;
65162;SDS011;51751;55.714;37.436;2022-08-21T15:13:31;18.08;;;4.05;;
65162;SDS011;51751;55.714;37.436;2022-08-21T15:16:00;14.10;;;3.88;;
65162;SDS011;51751;55.714;37.436;2022-08-21T15:18:27;18.15;;;3.90;;
65162;SDS011;51751;55.714;37.436;2022-08-21T15:20:54;17.15;;;3.85;;
65162;SDS011;51751;55.714;37.436;2022-08-21T15:23:29;17.30;;;3.20;;
65162;SDS011;51751;55.714;37.436;2022-08-21T15:25:55;12.90;;;3.42;;
65162;SDS011;51751;55.714;37.436;2022-08-21T15:28:23;13.05;;;3.30;;
65162;SDS011;51751;55.714;37.436;2022-08-21T15:30:50;14.88;;;3.10;;
65162;SDS011;51751;55.714;37.436;2022-08-21T15:33:16;10.50;;;2.70;;
65162;SDS011;51751;55.714;37.436;2022-08-21T15:35:43;13.88;;;2.65;;
65162;SDS011;51751;55.714;37.436;2022-08-21T15:38:09;9.70;;;2.70;;
65162;SDS011;51751;55.714;37.436;2022-08-21T15:43:32;10.00;;;2.83;;
65162;SDS011;51751;55.714;37.436;2022-08-21T15:46:08;9.23;;;2.47;;
65162;SDS011;51751;55.714;37.436;2022-08-21T15:48:36;6.63;;;2.80;;
65162;SDS011;51751;55.714;37.436;2022-08-21T15:51:02;18.90;;;2.83;;
65162;SDS011;51751;55.714;37.436;2022-08-21T15:53:28;10.20;;;2.83;;
65162;SDS011;51751;55.714;37.436;2022-08-21T15:55:54;5.75;;;2.30;;
65162;SDS011;51751;55.714;37.436;2022-08-21T15:58:44;7.72;;;1.80;;
65162;SDS011;51751;55.714;37.436;2022-08-21T16:01:10;6.50;;;1.73;;
65162;SDS011;51751;55.714;37.436;2022-08-21T16:03:36;7.43;;;2.05;;
65162;SDS011;51751;55.714;37.436;2022-08-21T16:06:03;9.20;;;1.90;;
65162;SDS011;51751;55.714;37.436;2022-08-21T16:08:30;12.60;;;2.20;;
65162;SDS011;51751;55.714;37.436;2022-08-21T16:10:56;8.52;;;1.70;;
65162;SDS011;51751;55.714;37.436;2022-08-21T16:13:29;8.15;;;1.60;;
65162;SDS011;51751;55.714;37.436;2022-08-21T16:16:00;7.13;;;1.90;;
65162;SDS011;51751;55.714;37.436;2022-08-21T16:18:51;9.48;;;1.83;;
65162;SDS011;51751;55.714;37.436;2022-08-21T16:21:20;13.40;;;2.10;;
65162;SDS011;51751;55.714;37.436;2022-08-21T16:23:49;4.63;;;1.85;;
65162;SDS011;51751;55.714;37.436;2022-08-21T16:26:21;12.90;;;2.30;;
65162;SDS011;51751;55.714;37.436;2022-08-21T16:28:50;8.05;;;2.15;;
65162;SDS011;51751;55.714;37.436;2022-08-21T16:31:43;8.35;;;1.98;;
65162;SDS011;51751;55.714;37.436;2022-08-21T16:34:11;7.63;;;2.17;;
65162;SDS011;51751;55.714;37.436;2022-08-21T16:36:40;8.38;;;2.00;;
65162;SDS011;51751;55.714;37.436;2022-08-21T16:39:06;5.68;;;2.65;;
65162;SDS011;51751;55.714;37.436;2022-08-21T16:41:33;13.30;;;2.60;;
65162;SDS011;51751;55.714;37.436;2022-08-21T16:44:20;6.93;;;2.25;;
65162;SDS011;51751;55.714;37.436;2022-08-21T16:46:46;10.98;;;2.20;;